This is the latest recevied weather packets stored in our database for station/object IU3NMQ-10. If no packets are shown the sender has not sent any weather packets the latest 10 day(s).
| Time | Temp. | Humidity | Pressure | Rain* | Wind** | Luminosity | Snow |
|---|---|---|---|---|---|---|---|
| 1787940154 | 28.33° C | 80% | 1012.1 hPa | - | - | - | - |
| 1787939254 | 29.44° C | 74% | 1009.9 hPa | - | - | - | - |
| 1787938354 | 30° C | 72% | 1009.1 hPa | - | - | - | - |
| 1787937537 | 30° C | 70% | 1009 hPa | - | - | - | - |
| 1787937454 | 30° C | 70% | 1009 hPa | - | - | - | - |
| 1787936603 | 30° C | 70% | 1009.3 hPa | - | - | - | - |
| 1787936554 | 30° C | 70% | 1009.3 hPa | - | - | - | - |
| 1787935691 | 30° C | 71% | 1008.4 hPa | - | - | - | - |
| 1787935653 | 30° C | 71% | 1008.4 hPa | - | - | - | - |
| 1787934753 | 30° C | 69% | 1009.6 hPa | - | - | - | - |
| 1787933853 | 30.56° C | 68% | 1009.4 hPa | - | - | - | - |
| 1787932953 | 30.56° C | 68% | 1009.5 hPa | - | - | - | - |
| 1787932053 | 30.56° C | 66% | 1009.3 hPa | - | - | - | - |
| 1787931153 | 31.11° C | 65% | 1009.4 hPa | - | - | - | - |
| 1787930253 | 31.67° C | 61% | 1009.5 hPa | - | - | - | - |
| 1787929353 | 32.22° C | 60% | 1009.4 hPa | - | - | - | - |
| 1787928452 | 32.78° C | 59% | 1009.7 hPa | - | - | - | - |
| 1787927552 | 32.78° C | 58% | 1009.7 hPa | - | - | - | - |
| 1787926652 | 32.78° C | 59% | 1009.8 hPa | - | - | - | - |
| 1787925752 | 33.33° C | 58% | 1010 hPa | - | - | - | - |
| 1787924852 | 33.33° C | 57% | 1010.3 hPa | - | - | - | - |
| 1787923952 | 33.89° C | 57% | 1010.7 hPa | - | - | - | - |
| 1787923052 | 33.89° C | 55% | 1010.7 hPa | - | - | - | - |
| 1787922196 | 33.89° C | 56% | 1010.8 hPa | - | - | - | - |
| 1787922152 | 33.89° C | 56% | 1010.8 hPa | - | - | - | - |
* Rain since midnight (hover to see other rain measurements)
** Current wind speed in m/s (hover to see current wind gust speed)